Terminal Aerodrome Forecast
Issued by NWS Jackson, KY

Home | Current Version | Previous Version | Text Only | Print | Product List | Glossary On
Versions: 1 2 3 4 5 6 7 8 9 10 11 12 13 14 15 16 17 18 19 20
000
FTUS43 KJKL 312320
TAFJKL
TAF
KJKL 312320Z 0100/0124 32003KT P6SM SCT040 BKN120
     FM011100 00000KT 5SM BR SCT010 BKN030
     FM011400 34002KT 6SM BR BKN008 BKN015
     FM011700 35005KT P6SM SCT030=

USA.gov is the U.S. government's official web portal to all federal, state and local government web resources and services.